Peotone Weather
Station Historical Data
 
Daily Summary for October 23, 2014 Units:  English    Metric   Both
« Previous Day
Next Day »
Daily Weekly Monthly Yearly Custom
  Current: High: Low: Average:
Temperature: 58.8 °F 58.8 °F 35.0 °F 40.9 °F
Dew Point: 47.5 °F 47.5 °F 33.5 °F 37.8 °F
Humidity: 66% 96% 63% 89%
Wind Speed: 11.5mph 13.8mph 0.0mph 2.9mph
Wind Gust: 11.5mph 14.9mph - -
WindSSW - - SE
Pressure: 30.19 in 30.29 in 30.19 in -
Precipitation: 0.00 in      
Historical Graphs
 
 
Tabular Data for October 23, 2014
Time Temperature Dew Point Pressure Wind Wind Speed Wind Gust Humidity Rainfall Rate (Hourly) solar Conditions
00:00 37.5 °F 35.7 °F 30.29 in ENE 1.1 mph 3.4 mph 93% 0.00 in 0.00 W/m2
00:05 37.5 °F 35.7 °F 30.28 in Calm   2.3 mph 93% 0.00 in 0.00 W/m2
00:10 37.5 °F 35.7 °F 30.28 in Calm   2.3 mph 93% 0.00 in 0.00 W/m2
00:15 37.5 °F 35.7 °F 30.28 in Calm   3.4 mph 93% 0.00 in 0.00 W/m2
00:20 37.6 °F 35.8 °F 30.28 in ENE 1.1 mph 2.3 mph 93% 0.00 in 0.00 W/m2
00:25 37.7 °F 35.9 °F 30.28 in Calm   1.1 mph 93% 0.00 in 0.00 W/m2
00:30 37.8 °F 36.0 °F 30.28 in Calm   2.3 mph 93% 0.00 in 0.00 W/m2
00:35 37.7 °F 35.9 °F 30.28 in Calm   1.1 mph 93% 0.00 in 0.00 W/m2
00:40 37.6 °F 35.8 °F 30.28 in Calm   1.1 mph 93% 0.00 in 0.00 W/m2
00:45 37.6 °F 35.8 °F 30.27 in Calm   1.1 mph 93% 0.00 in 0.00 W/m2
00:51 37.4 °F 35.6 °F 30.27 in Calm   1.1 mph 93% 0.00 in 0.00 W/m2
00:56 37.3 °F 35.5 °F 30.27 in Calm   2.3 mph 93% 0.00 in 0.00 W/m2
01:01 37.1 °F 35.3 °F 30.27 in Calm     93% 0.00 in 0.00 W/m2
01:06 37.0 °F 35.2 °F 30.27 in Calm   1.1 mph 93% 0.00 in 0.00 W/m2
01:11 36.8 °F 35.0 °F 30.27 in Calm     93% 0.00 in 0.00 W/m2
01:16 36.7 °F 34.9 °F 30.27 in Calm   2.3 mph 93% 0.00 in 0.00 W/m2
01:21 36.7 °F 34.9 °F 30.27 in Calm   4.6 mph 93% 0.00 in 0.00 W/m2
01:26 36.8 °F 35.0 °F 30.27 in Calm   2.3 mph 93% 0.00 in 0.00 W/m2
01:31 36.8 °F 35.0 °F 30.27 in Calm   2.3 mph 93% 0.00 in 0.00 W/m2
01:36 36.9 °F 35.1 °F 30.27 in Calm   3.4 mph 93% 0.00 in 0.00 W/m2
01:41 36.9 °F 35.1 °F 30.27 in ENE 2.3 mph 3.4 mph 93% 0.00 in 0.00 W/m2
01:46 36.8 °F 35.0 °F 30.27 in Calm     93% 0.00 in 0.00 W/m2
01:51 36.7 °F 34.9 °F 30.27 in ENE 2.3 mph 3.4 mph 93% 0.00 in 0.00 W/m2
01:56 36.6 °F 34.8 °F 30.27 in Calm   1.1 mph 93% 0.00 in 0.00 W/m2
02:01 36.6 °F 35.0 °F 30.27 in Calm   2.3 mph 94% 0.00 in 0.00 W/m2
02:06 36.6 °F 35.0 °F 30.27 in ENE 1.1 mph 1.1 mph 94% 0.00 in 0.00 W/m2
02:11 36.6 °F 34.8 °F 30.27 in ENE 1.1 mph 1.1 mph 93% 0.00 in 0.00 W/m2
02:16 36.5 °F 34.7 °F 30.27 in Calm     93% 0.00 in 0.00 W/m2
02:22 36.5 °F 34.7 °F 30.27 in Calm     93% 0.00 in 0.00 W/m2
02:27 36.4 °F 34.6 °F 30.26 in ENE 1.1 mph 3.4 mph 93% 0.00 in 0.00 W/m2
02:32 36.4 °F 34.8 °F 30.26 in Calm   1.1 mph 94% 0.00 in 0.00 W/m2
02:37 36.4 °F 34.8 °F 30.26 in Calm     94% 0.00 in 0.00 W/m2
02:42 36.3 °F 34.7 °F 30.26 in Calm     94% 0.00 in 0.00 W/m2
02:47 36.2 °F 34.6 °F 30.26 in Calm     94% 0.00 in 0.00 W/m2
02:52 36.2 °F 34.6 °F 30.26 in Calm     94% 0.00 in 0.00 W/m2
02:57 36.1 °F 34.5 °F 30.26 in Calm     94% 0.00 in 0.00 W/m2
03:02 36.1 °F 34.5 °F 30.26 in Calm     94% 0.00 in 0.00 W/m2
03:08 36.1 °F 34.5 °F 30.26 in Calm     94% 0.00 in 0.00 W/m2
03:12 36.0 °F 34.4 °F 30.26 in Calm     94% 0.00 in 0.00 W/m2
03:18 35.9 °F 34.1 °F 30.26 in Calm     93% 0.00 in 0.00 W/m2
03:23 35.7 °F 33.9 °F 30.26 in Calm   1.1 mph 93% 0.00 in 0.00 W/m2
03:28 35.6 °F 33.8 °F 30.26 in Calm   1.1 mph 93% 0.00 in 0.00 W/m2
03:33 35.6 °F 34.0 °F 30.25 in Calm   2.3 mph 94% 0.00 in 0.00 W/m2
03:38 35.6 °F 34.0 °F 30.25 in Calm   1.1 mph 94% 0.00 in 0.00 W/m2
03:43 35.6 °F 34.0 °F 30.25 in ENE 1.1 mph 1.1 mph 94% 0.00 in 0.00 W/m2
03:48 35.6 °F 34.0 °F 30.25 in ENE 1.1 mph 2.3 mph 94% 0.00 in 0.00 W/m2
03:54 35.6 °F 34.0 °F 30.25 in ENE 2.3 mph 2.3 mph 94% 0.00 in 0.00 W/m2
03:59 35.6 °F 34.0 °F 30.25 in ENE 1.1 mph 3.4 mph 94% 0.00 in 0.00 W/m2
04:04 35.6 °F 34.0 °F 30.25 in ENE 1.1 mph 2.3 mph 94% 0.00 in 0.00 W/m2
04:09 35.5 °F 34.0 °F 30.25 in ENE 2.3 mph 4.6 mph 94% 0.00 in 0.00 W/m2
04:14 35.5 °F 34.0 °F 30.25 in Calm   2.3 mph 94% 0.00 in 0.00 W/m2
04:19 35.5 °F 34.0 °F 30.25 in Calm     94% 0.00 in 0.00 W/m2
04:24 35.5 °F 34.0 °F 30.25 in ENE 1.1 mph 3.4 mph 94% 0.00 in 0.00 W/m2
04:29 35.5 °F 34.0 °F 30.25 in ENE 1.1 mph 2.3 mph 94% 0.00 in 0.00 W/m2
04:35 35.5 °F 34.0 °F 30.25 in ENE 2.3 mph 3.4 mph 94% 0.00 in 0.00 W/m2
04:40 35.5 °F 34.0 °F 30.25 in ENE 1.1 mph 2.3 mph 94% 0.00 in 0.00 W/m2
04:45 35.5 °F 34.0 °F 30.25 in ENE 2.3 mph 2.3 mph 94% 0.00 in 0.00 W/m2
04:50 35.5 °F 34.0 °F 30.25 in ENE 2.3 mph 2.3 mph 94% 0.00 in 0.00 W/m2
04:55 35.4 °F 33.8 °F 30.25 in ENE 2.3 mph 4.6 mph 94% 0.00 in 0.00 W/m2
05:00 35.4 °F 33.8 °F 30.25 in ENE 2.3 mph 4.6 mph 94% 0.00 in 0.00 W/m2
05:05 35.4 °F 33.8 °F 30.25 in ENE 4.6 mph 4.6 mph 94% 0.00 in 0.00 W/m2
05:10 35.4 °F 33.8 °F 30.25 in ENE 1.1 mph 4.6 mph 94% 0.00 in 0.00 W/m2
05:15 35.5 °F 34.0 °F 30.25 in ENE 2.3 mph 4.6 mph 94% 0.00 in 0.00 W/m2
05:20 35.6 °F 34.0 °F 30.25 in ENE 3.4 mph 4.6 mph 94% 0.00 in 0.00 W/m2
05:25 35.6 °F 34.0 °F 30.25 in ENE 3.4 mph 4.6 mph 94% 0.00 in 0.00 W/m2
05:30 35.6 °F 34.0 °F 30.25 in ENE 2.3 mph 4.6 mph 94% 0.00 in 0.00 W/m2
05:35 35.6 °F 34.0 °F 30.25 in ENE 1.1 mph 4.6 mph 94% 0.00 in 0.00 W/m2
05:40 35.6 °F 34.0 °F 30.25 in ENE 4.6 mph 4.6 mph 94% 0.00 in 0.00 W/m2
05:46 35.5 °F 34.0 °F 30.25 in ENE 1.1 mph 4.6 mph 94% 0.00 in 0.00 W/m2
05:51 35.5 °F 34.0 °F 30.25 in ENE 2.3 mph 4.6 mph 94% 0.00 in 0.00 W/m2
05:56 35.4 °F 33.8 °F 30.25 in ENE 2.3 mph 3.4 mph 94% 0.00 in 0.00 W/m2
06:01 35.4 °F 33.8 °F 30.25 in ENE 2.3 mph 4.6 mph 94% 0.00 in 0.00 W/m2
06:06 35.3 °F 33.8 °F 30.25 in ENE 2.3 mph 3.4 mph 94% 0.00 in 0.00 W/m2
06:11 35.2 °F 33.7 °F 30.25 in ENE 3.4 mph 3.4 mph 94% 0.00 in 0.00 W/m2
06:16 35.3 °F 34.0 °F 30.25 in ENE 2.3 mph 4.6 mph 95% 0.00 in 0.00 W/m2
06:21 35.3 °F 34.0 °F 30.25 in ENE 2.3 mph 2.3 mph 95% 0.00 in 0.00 W/m2
06:26 35.3 °F 34.0 °F 30.25 in ENE 2.3 mph 3.4 mph 95% 0.00 in 0.00 W/m2
06:31 35.3 °F 34.0 °F 30.25 in ENE 3.4 mph 3.4 mph 95% 0.00 in 0.00 W/m2
06:36 35.2 °F 33.7 °F 30.25 in ENE 1.1 mph 2.3 mph 94% 0.00 in 0.00 W/m2
06:41 35.2 °F 33.7 °F 30.25 in ENE 3.4 mph 3.4 mph 94% 0.00 in 0.00 W/m2
06:46 35.1 °F 33.5 °F 30.24 in ENE 2.3 mph 2.3 mph 94% 0.00 in 0.00 W/m2
06:51 35.1 °F 33.5 °F 30.24 in ENE 2.3 mph 2.3 mph 94% 0.00 in 0.00 W/m2
06:57 35.0 °F 33.5 °F 30.24 in ENE 1.1 mph 2.3 mph 94% 0.00 in 0.00 W/m2
07:02 35.0 °F 33.7 °F 30.24 in ENE 2.3 mph 3.4 mph 95% 0.00 in 0.00 W/m2
07:07 35.0 °F 33.7 °F 30.25 in Calm   2.3 mph 95% 0.00 in 7.00 W/m2
07:12 35.0 °F 33.7 °F 30.24 in ENE 2.3 mph 3.4 mph 95% 0.00 in 7.00 W/m2
07:17 35.0 °F 33.7 °F 30.24 in ENE 4.6 mph 4.6 mph 95% 0.00 in 12.00 W/m2
07:22 35.0 °F 33.7 °F 30.24 in ENE 2.3 mph 2.3 mph 95% 0.00 in 18.00 W/m2
07:27 35.0 °F 33.7 °F 30.24 in ENE 2.3 mph 3.4 mph 95% 0.00 in 23.00 W/m2
07:32 35.1 °F 33.8 °F 30.24 in ENE 2.3 mph 3.4 mph 95% 0.00 in 25.00 W/m2
07:37 35.1 °F 33.8 °F 30.24 in ENE 2.3 mph 3.4 mph 95% 0.00 in 30.00 W/m2
07:43 35.2 °F 33.9 °F 30.25 in ENE 2.3 mph 3.4 mph 95% 0.00 in 39.00 W/m2
07:48 35.3 °F 34.0 °F 30.24 in ENE 2.3 mph 4.6 mph 95% 0.00 in 37.00 W/m2
07:53 35.4 °F 34.1 °F 30.25 in Calm   3.4 mph 95% 0.00 in 47.00 W/m2
07:58 35.5 °F 34.2 °F 30.25 in ENE 2.3 mph 4.6 mph 95% 0.00 in 49.00 W/m2
08:03 35.7 °F 34.4 °F 30.25 in ENE 2.3 mph 4.6 mph 95% 0.00 in 76.00 W/m2
08:08 36.1 °F 34.8 °F 30.25 in ENE 1.1 mph 4.6 mph 95% 0.00 in 88.00 W/m2
08:13 37.0 °F 35.7 °F 30.25 in Calm     95% 0.00 in 47.00 W/m2
08:19 37.4 °F 36.1 °F 30.25 in Calm     95% 0.00 in 58.00 W/m2
08:24 37.8 °F 36.5 °F 30.25 in ENE 2.3 mph 4.6 mph 95% 0.00 in 132.00 W/m2
08:29 38.6 °F 37.3 °F 30.25 in ENE 1.1 mph 3.4 mph 95% 0.00 in 192.00 W/m2
08:34 39.1 °F 38.1 °F 30.25 in ENE 4.6 mph 5.8 mph 96% 0.00 in 139.00 W/m2
08:39 39.7 °F 38.7 °F 30.25 in ESE 4.6 mph 8.1 mph 96% 0.00 in 195.00 W/m2
08:44 40.1 °F 39.0 °F 30.25 in SSE 3.4 mph 8.1 mph 96% 0.00 in 130.00 W/m2
08:49 40.4 °F 39.1 °F 30.25 in SSE 3.4 mph 8.1 mph 95% 0.00 in 160.00 W/m2
08:54 40.9 °F 39.6 °F 30.25 in SSE 1.1 mph 4.6 mph 95% 0.00 in 186.00 W/m2
09:00 41.4 °F 40.1 °F 30.25 in SSE 8.1 mph 9.2 mph 95% 0.00 in 218.00 W/m2
09:05 41.8 °F 40.5 °F 30.25 in SSE 3.4 mph 8.1 mph 95% 0.00 in 246.00 W/m2
09:10 42.1 °F 40.8 °F 30.25 in SSE 1.1 mph 8.1 mph 95% 0.00 in 274.00 W/m2
09:15 42.6 °F 41.0 °F 30.25 in SSE 5.8 mph 8.1 mph 94% 0.00 in 299.00 W/m2
09:20 43.0 °F 41.4 °F 30.25 in SSE 5.8 mph 8.1 mph 94% 0.00 in 309.00 W/m2
09:25 43.7 °F 42.1 °F 30.25 in SSE 2.3 mph 5.8 mph 94% 0.00 in 322.00 W/m2
09:30 44.4 °F 42.5 °F 30.25 in Calm   10.3 mph 93% 0.00 in 336.00 W/m2
09:35 45.1 °F 42.9 °F 30.25 in South 2.3 mph 5.8 mph 92% 0.00 in 350.00 W/m2
09:40 46.0 °F 43.5 °F 30.25 in Calm   5.8 mph 91% 0.00 in 258.00 W/m2
09:46 46.5 °F 43.7 °F 30.25 in South 4.6 mph 10.3 mph 90% 0.00 in 88.00 W/m2
09:51 47.1 °F 44.3 °F 30.25 in South 2.3 mph 3.4 mph 90% 0.00 in 239.00 W/m2
09:56 47.7 °F 44.3 °F 30.25 in South 2.3 mph 5.8 mph 88% 0.00 in 88.00 W/m2
10:01 48.2 °F 44.5 °F 30.24 in SSW 6.9 mph 9.2 mph 87% 0.00 in 91.00 W/m2
10:06 48.8 °F 44.8 °F 30.24 in South 8.1 mph 9.2 mph 86% 0.00 in 93.00 W/m2
10:11 49.2 °F 44.9 °F 30.24 in Calm   12.6 mph 85% 0.00 in 121.00 W/m2
10:16 49.6 °F 45.3 °F 30.24 in SSW 9.2 mph 10.3 mph 85% 0.00 in 121.00 W/m2
10:21 49.9 °F 45.3 °F 30.24 in SSW 5.8 mph 9.2 mph 84% 0.00 in 105.00 W/m2
10:26 50.4 °F 45.4 °F 30.24 in SSW 6.9 mph 10.3 mph 83% 0.00 in 102.00 W/m2
10:31 51.1 °F 45.5 °F 30.24 in SW 8.1 mph 10.3 mph 81% 0.00 in 107.00 W/m2
10:36 51.6 °F 45.3 °F 30.24 in SW 4.6 mph 4.6 mph 79% 0.00 in 213.00 W/m2
10:41 52.3 °F 46.0 °F 30.24 in SSW 8.1 mph 8.1 mph 79% 0.00 in 149.00 W/m2
10:46 52.9 °F 45.9 °F 30.23 in SW 1.1 mph 4.6 mph 77% 0.00 in 134.00 W/m2
10:51 53.2 °F 45.8 °F 30.23 in SSW 4.6 mph 8.1 mph 76% 0.00 in 114.00 W/m2
10:56 53.1 °F 45.8 °F 30.23 in SW 4.6 mph 10.3 mph 76% 0.00 in 90.00 W/m2
11:02 53.2 °F 45.5 °F 30.23 in SSW 10.3 mph 13.8 mph 75% 0.00 in 76.00 W/m2
11:07 53.1 °F 45.4 °F 30.23 in South 9.2 mph 11.5 mph 75% 0.00 in 79.00 W/m2
11:12 53.4 °F 45.7 °F 30.23 in SW 6.9 mph 12.6 mph 75% 0.00 in 81.00 W/m2
11:17 53.8 °F 46.1 °F 30.23 in WSW 13.8 mph 13.8 mph 75% 0.00 in 83.00 W/m2
11:22 54.3 °F 45.8 °F 30.23 in South 9.2 mph 9.2 mph 73% 0.00 in 132.00 W/m2
11:27 54.6 °F 46.1 °F 30.23 in SW 9.2 mph 11.5 mph 73% 0.00 in 206.00 W/m2
11:32 55.4 °F 46.9 °F 30.23 in WSW 10.3 mph 13.8 mph 73% 0.00 in 225.00 W/m2
11:38 56.0 °F 47.1 °F 30.22 in WSW 10.3 mph 11.5 mph 72% 0.00 in 246.00 W/m2
11:43 56.1 °F 46.5 °F 30.23 in SSW 6.9 mph 13.8 mph 70% 0.00 in 603.00 W/m2
11:48 56.3 °F 46.7 °F 30.23 in SW 6.9 mph 11.5 mph 70% 0.00 in 605.00 W/m2
11:53 56.6 °F 46.6 °F 30.23 in SSW 12.6 mph 14.9 mph 69% 0.00 in 592.00 W/m2
11:58 56.7 °F 46.3 °F 30.22 in South 6.9 mph 12.6 mph 68% 0.00 in 606.00 W/m2
12:03 57.3 °F 46.8 °F 30.22 in SW 12.6 mph 12.6 mph 68% 0.00 in 591.00 W/m2
12:08 57.1 °F 46.7 °F 30.22 in WSW 5.8 mph 9.2 mph 68% 0.00 in 492.00 W/m2
12:14 57.3 °F 46.5 °F 30.22 in SW 8.1 mph 10.3 mph 67% 0.00 in 179.00 W/m2
12:19 57.6 °F 45.9 °F 30.21 in SSW 8.1 mph 9.2 mph 65% 0.00 in 172.00 W/m2
12:24 57.4 °F 46.2 °F 30.21 in West 9.2 mph 10.3 mph 66% 0.00 in 316.00 W/m2
12:29 57.7 °F 46.0 °F 30.20 in South 2.3 mph 9.2 mph 65% 0.00 in 167.00 W/m2
12:34 58.4 °F 47.1 °F 30.20 in South 9.2 mph 9.2 mph 66% 0.00 in 179.00 W/m2
12:39 58.6 °F 46.1 °F 30.19 in WSW 8.1 mph 10.3 mph 63% 0.00 in 132.00 W/m2
12:44 58.4 °F 45.9 °F 30.19 in South 6.9 mph 12.6 mph 63% 0.00 in 265.00 W/m2
12:49 58.8 °F 47.5 °F 30.19 in SSW 11.5 mph 11.5 mph 66% 0.00 in 234.00 W/m2
Peotone Weather Data
Compliments of Weather Underground